Time;durP1;ratioP1;P1;durP2;ratioP2;P2;SDS_P1;SDS_P2;PMS_P1;PMS_P2;Temp;Humidity;BMP_temperature;BMP_pressure;BME280_temperature;BME280_humidity;BME280_pressure;Samples;Min_cycle;Max_cycle;Signal;HPM_P1;HPM_P2
2022/09/01 00:02:22;;;;;;;2.80;1.00;;;;;;;16.20;52.52;101866.22;6186010;23;20009;-84
2022/09/01 00:04:48;;;;;;;5.72;1.10;;;;;;;16.16;53.00;101859.53;6161613;23;20059;-84
2022/09/01 00:07:13;;;;;;;1.80;1.00;;;;;;;16.12;54.25;101854.50;6185335;23;20013;-84
2022/09/01 00:09:39;;;;;;;1.83;0.93;;;;;;;16.08;54.42;101857.94;6185685;23;20005;-84
2022/09/01 00:12:09;;;;;;;1.70;1.05;;;;;;;16.05;54.04;101859.22;6184715;23;20009;-84
2022/09/01 00:14:39;;;;;;;2.07;1.00;;;;;;;16.01;54.24;101852.50;6186556;23;20067;-84
2022/09/01 00:17:07;;;;;;;3.53;1.02;;;;;;;16.00;54.66;101860.94;6185638;23;20009;-84
2022/09/01 00:19:34;;;;;;;2.15;1.10;;;;;;;15.97;54.42;101862.25;6185621;23;20379;-84
2022/09/01 00:22:00;;;;;;;2.70;1.10;;;;;;;15.93;55.36;101852.84;6185604;23;20085;-84
2022/09/01 00:24:26;;;;;;;2.03;0.90;;;;;;;15.90;55.59;101865.06;6185415;23;20328;-84
2022/09/01 00:26:56;;;;;;;6.15;1.02;;;;;;;15.87;56.21;101850.97;6186710;23;20012;-84
2022/09/01 00:29:22;;;;;;;2.85;1.20;;;;;;;15.83;56.47;101856.06;6186751;23;20012;-84
2022/09/01 00:31:48;;;;;;;5.97;1.23;;;;;;;15.83;57.40;101863.47;6185173;23;20505;-84
2022/09/01 00:34:14;;;;;;;2.97;1.10;;;;;;;15.78;57.26;101867.69;6185062;23;20436;-84
2022/09/01 00:36:39;;;;;;;4.30;1.10;;;;;;;15.76;57.66;101866.22;6185810;23;20013;-84
2022/09/01 00:39:06;;;;;;;2.07;1.13;;;;;;;15.72;58.87;101862.25;6160747;23;20017;-84
2022/09/01 00:41:37;;;;;;;3.95;1.23;;;;;;;15.68;58.54;101859.13;6187176;23;20024;-84
2022/09/01 00:44:06;;;;;;;6.55;1.30;;;;;;;15.67;59.35;101867.56;6187014;23;20001;-84
2022/09/01 00:46:37;;;;;;;4.55;1.15;;;;;;;15.64;58.95;101863.38;6186285;23;20314;-84
2022/09/01 00:49:10;;;;;;;3.35;1.20;;;;;;;15.61;59.25;101861.91;6186105;23;20311;-84
2022/09/01 00:51:39;;;;;;;2.33;1.20;;;;;;;15.56;59.81;101861.78;6186648;23;20372;-84
2022/09/01 00:54:07;;;;;;;2.67;1.50;;;;;;;15.52;60.32;101857.81;6186860;23;20007;-84
2022/09/01 00:56:36;;;;;;;5.03;1.25;;;;;;;15.50;60.22;101859.94;6184889;23;20005;-84
2022/09/01 00:59:05;;;;;;;1.90;1.30;;;;;;;15.46;59.98;101858.72;6185158;23;20412;-84
2022/09/01 01:01:33;;;;;;;1.83;1.30;;;;;;;15.43;60.97;101861.88;6186808;23;20004;-84
2022/09/01 01:04:01;;;;;;;7.60;1.40;;;;;;;15.41;60.88;101861.25;6184843;23;20016;-84
2022/09/01 01:06:31;;;;;;;3.33;1.23;;;;;;;15.44;61.03;101860.81;6185230;23;20020;-84
2022/09/01 01:08:59;;;;;;;3.28;1.40;;;;;;;15.40;61.80;101862.34;6185538;23;20434;-84
2022/09/01 01:11:28;;;;;;;4.53;1.33;;;;;;;15.33;61.48;101856.91;6160980;23;20396;-84
2022/09/01 01:14:09;;;;;;;4.50;1.20;;;;;;;15.30;61.79;101849.16;6184978;23;20033;-84
2022/09/01 01:16:35;;;;;;;2.10;1.20;;;;;;;15.27;62.52;101855.06;6187398;23;20092;-84
2022/09/01 01:19:01;;;;;;;3.85;1.40;;;;;;;15.23;61.93;101848.38;6185099;23;20017;-84
2022/09/01 01:24:31;;;;;;;2.50;1.40;;;;;;;15.17;63.18;101855.56;6186189;23;20036;-84
2022/09/01 01:26:58;;;;;;;2.45;1.33;;;;;;;15.13;62.77;101850.75;6186235;23;20439;-84
2022/09/01 01:29:30;;;;;;;2.43;1.27;;;;;;;15.12;63.91;101854.53;6185087;23;20004;-84
2022/09/01 01:31:56;;;;;;;4.07;1.27;;;;;;;15.06;63.49;101848.09;6185062;23;20005;-85
2022/09/01 01:34:22;;;;;;;3.47;1.40;;;;;;;15.05;63.88;101849.13;6161026;23;20009;-84
2022/09/01 01:36:47;;;;;;;3.25;1.10;;;;;;;15.02;64.00;101852.31;6184726;23;20009;-84
2022/09/01 01:39:24;;;;;;;3.03;1.30;;;;;;;14.99;64.35;101852.75;6184449;23;20092;-84
2022/09/01 01:41:50;;;;;;;6.63;1.48;;;;;;;14.95;64.45;101849.59;6187092;23;20005;-84
2022/09/01 01:44:19;;;;;;;2.17;1.30;;;;;;;14.92;64.43;101850.06;6185988;23;20012;-83
2022/09/01 01:46:51;;;;;;;3.35;1.30;;;;;;;14.93;65.57;101851.75;6185619;23;20328;-85
2022/09/01 01:49:20;;;;;;;2.42;1.27;;;;;;;14.87;65.71;101861.66;6184911;23;20005;-84
2022/09/01 01:51:48;;;;;;;2.25;1.60;;;;;;;14.86;65.80;101862.69;6185990;23;20012;-84
2022/09/01 01:54:14;;;;;;;3.35;1.67;;;;;;;14.85;65.65;101860.19;6184639;23;20008;-84
2022/09/01 01:56:40;;;;;;;4.03;1.57;;;;;;;14.82;66.12;101863.34;6184885;23;20012;-84
2022/09/01 01:59:14;;;;;;;5.35;1.50;;;;;;;14.80;66.86;101860.84;6184389;23;20001;-84
2022/09/01 02:01:41;;;;;;;6.78;1.30;;;;;;;14.79;66.55;101870.09;6185146;23;20427;-83
2022/09/01 02:04:13;;;;;;;1.80;1.17;;;;;;;14.77;66.62;101868.66;6135596;23;20088;-84
2022/09/01 02:06:44;;;;;;;3.15;1.60;;;;;;;14.74;66.20;101867.19;6185014;23;20009;-84
2022/09/01 02:09:15;;;;;;;5.47;1.40;;;;;;;14.68;67.58;101862.59;6184793;23;20017;-84
2022/09/01 02:11:41;;;;;;;6.47;1.45;;;;;;;14.66;66.72;101856.50;6185857;23;20015;-84
2022/09/01 02:14:08;;;;;;;7.72;1.50;;;;;;;14.61;66.88;101862.63;6186438;23;20319;-84
2022/09/01 02:16:35;;;;;;;6.25;1.70;;;;;;;14.60;67.15;101871.00;6184576;23;20009;-84
2022/09/01 02:19:02;;;;;;;1.73;1.30;;;;;;;14.56;67.25;101865.97;6159750;23;20024;-84
2022/09/01 02:21:29;;;;;;;4.67;1.70;;;;;;;14.54;67.79;101862.63;6184539;23;20009;-84
2022/09/01 02:24:01;;;;;;;3.15;1.60;;;;;;;14.52;68.11;101864.72;6160841;23;20013;-84
2022/09/01 02:26:30;;;;;;;2.42;1.45;;;;;;;14.50;67.99;101860.56;6185143;23;20072;-84
2022/09/01 02:29:03;;;;;;;5.20;1.70;;;;;;;14.49;67.71;101861.59;6186194;23;20009;-84
2022/09/01 02:31:31;;;;;;;3.95;1.90;;;;;;;14.45;68.04;101861.19;6160119;23;20013;-84
2022/09/01 02:33:57;;;;;;;3.37;1.40;;;;;;;14.44;68.11;101862.25;6184511;23;20005;-84
2022/09/01 02:36:24;;;;;;;3.88;1.63;;;;;;;14.39;68.13;101854.72;6185641;23;20013;-84
2022/09/01 02:38:50;;;;;;;4.28;1.58;;;;;;;14.37;68.53;101865.00;6186483;23;20013;-84
2022/09/01 02:41:21;;;;;;;3.88;1.70;;;;;;;14.36;68.52;101865.22;6186479;23;20015;-84
2022/09/01 02:43:50;;;;;;;4.83;1.87;;;;;;;14.32;68.35;101861.25;6186224;23;20005;-84
2022/09/01 02:46:15;;;;;;;5.55;1.60;;;;;;;14.31;68.13;101854.13;6188115;23;20057;-83
2022/09/01 02:48:44;;;;;;;5.10;1.63;;;;;;;14.28;68.73;101858.13;6136847;23;20005;-84
2022/09/01 02:51:16;;;;;;;5.97;1.63;;;;;;;14.27;68.95;101858.34;6186155;23;20088;-84
2022/09/01 02:53:42;;;;;;;2.05;1.50;;;;;;;14.24;69.20;101853.31;6186388;23;20009;-84
2022/09/01 02:56:12;;;;;;;3.78;1.92;;;;;;;14.20;69.00;101855.63;6185832;23;20376;-84
2022/09/01 02:58:44;;;;;;;4.88;1.65;;;;;;;14.15;69.26;101856.25;6186415;23;20008;-84
2022/09/01 03:01:26;;;;;;;2.78;1.63;;;;;;;14.16;68.88;101849.75;6186767;23;20403;-84
2022/09/01 03:03:57;;;;;;;2.37;1.73;;;;;;;14.11;69.60;101849.56;6186760;23;20011;-83
2022/09/01 03:06:24;;;;;;;2.78;1.30;;;;;;;14.07;70.23;101842.88;6186267;23;20009;-84
2022/09/01 03:08:57;;;;;;;3.33;2.00;;;;;;;14.03;69.92;101841.63;6187537;23;20009;-84
2022/09/01 03:11:24;;;;;;;5.60;1.98;;;;;;;14.04;69.99;101844.13;6185908;23;20012;-84
2022/09/01 03:13:50;;;;;;;5.45;1.70;;;;;;;14.04;70.07;101840.56;6187658;23;20025;-84
2022/09/01 03:16:15;;;;;;;8.10;1.77;;;;;;;14.03;71.12;101842.44;6187917;23;20005;-84
2022/09/01 03:18:41;;;;;;;5.60;1.83;;;;;;;13.98;70.35;101849.59;6161411;23;20009;-84
2022/09/01 03:21:08;;;;;;;2.78;1.80;;;;;;;13.98;70.66;101850.44;6187467;23;20067;-84
2022/09/01 03:23:34;;;;;;;5.33;1.53;;;;;;;13.96;70.91;101851.69;6185806;23;20009;-84
2022/09/01 03:26:00;;;;;;;4.68;2.05;;;;;;;13.91;71.05;101852.34;6161743;23;20193;-83
2022/09/01 03:28:26;;;;;;;2.90;1.70;;;;;;;13.89;70.82;101853.59;6186152;23;20013;-84
2022/09/01 03:30:55;;;;;;;6.13;1.98;;;;;;;13.88;71.43;101851.91;6186294;23;20083;-84
2022/09/01 03:33:25;;;;;;;4.38;2.00;;;;;;;13.85;71.32;101851.31;6185935;23;20009;-84
2022/09/01 03:35:51;;;;;;;6.63;2.13;;;;;;;13.80;70.74;101851.13;6186083;23;20008;-84
2022/09/01 03:38:19;;;;;;;10.10;2.08;;;;;;;13.77;71.41;101842.50;6186844;23;20001;-84
2022/09/01 03:40:46;;;;;;;6.75;1.98;;;;;;;13.76;72.21;101849.84;6187958;23;20059;-84
2022/09/01 03:43:23;;;;;;;4.33;2.77;;;;;;;13.76;71.17;101849.00;6161677;23;20435;-84
2022/09/01 03:45:49;;;;;;;4.78;2.20;;;;;;;13.71;71.46;101852.38;6188193;23;20005;-86
2022/09/01 03:48:15;;;;;;;3.83;1.97;;;;;;;13.69;71.78;101846.31;6187084;23;20442;-86
2022/09/01 03:50:46;;;;;;;2.83;1.90;;;;;;;13.65;71.49;101840.41;6187535;23;20005;-86
2022/09/01 03:53:18;;;;;;;4.07;2.10;;;;;;;13.64;72.07;101841.50;6185465;23;20017;-84
2022/09/01 03:55:46;;;;;;;5.20;2.40;;;;;;;13.62;72.04;101851.75;6186177;23;20063;-84
2022/09/01 03:58:17;;;;;;;7.38;2.20;;;;;;;13.58;72.25;101844.22;6187094;23;20052;-84
2022/09/01 04:00:46;;;;;;;8.83;2.40;;;;;;;13.62;73.04;101850.91;6186295;23;20009;-84
2022/09/01 04:03:13;;;;;;;7.85;2.33;;;;;;;13.60;72.68;101842.13;6185840;23;20009;-84
2022/09/01 04:05:43;;;;;;;4.10;2.05;;;;;;;13.60;72.84;101848.41;6187324;23;20009;-84
2022/09/01 04:08:11;;;;;;;6.35;2.13;;;;;;;13.58;72.86;101852.38;6186170;23;20489;-84
2022/09/01 04:10:48;;;;;;;4.55;2.30;;;;;;;13.54;72.27;101845.66;6185692;23;20009;-84
2022/09/01 04:13:18;;;;;;;5.87;2.17;;;;;;;13.53;72.49;101841.28;6186043;23;20001;-84
2022/09/01 04:15:44;;;;;;;5.07;2.35;;;;;;;13.54;73.42;101838.34;6187362;23;20064;-84
2022/09/01 04:18:18;;;;;;;8.35;2.20;;;;;;;13.59;73.96;101851.34;6160854;23;20071;-84
2022/09/01 04:20:48;;;;;;;7.47;2.50;;;;;;;13.55;73.43;101847.34;6186306;23;20036;-84
2022/09/01 04:23:29;;;;;;;5.18;2.15;;;;;;;13.58;72.78;101845.06;6187135;23;20040;-85
2022/09/01 04:26:07;;;;;;;10.90;2.70;;;;;;;13.59;73.08;101846.72;6185963;23;20013;-84
2022/09/01 04:28:35;;;;;;;7.43;2.40;;;;;;;13.62;72.36;101849.03;6187515;23;20084;-84
2022/09/01 04:31:08;;;;;;;7.90;2.40;;;;;;;13.70;72.23;101848.00;6187003;23;20012;-84
2022/09/01 04:33:38;;;;;;;7.75;2.40;;;;;;;13.78;72.15;101846.91;6185115;23;20059;-83
2022/09/01 04:36:30;;;;;;;6.45;2.35;;;;;;;13.89;71.71;101848.16;6187059;23;20005;-84
2022/09/01 04:38:59;;;;;;;6.57;2.20;;;;;;;13.94;71.23;101851.09;6185201;23;20027;-84
2022/09/01 04:41:30;;;;;;;8.77;2.42;;;;;;;13.98;71.17;101855.03;6186832;23;20009;-84
2022/09/01 04:43:57;;;;;;;7.05;2.00;;;;;;;14.02;71.29;101848.13;6185414;23;20013;-84
2022/09/01 04:46:27;;;;;;;8.70;2.15;;;;;;;14.02;71.26;101851.69;6185094;23;20009;-84
2022/09/01 04:48:53;;;;;;;6.22;2.05;;;;;;;13.98;70.82;101852.31;6185533;23;20379;-84
2022/09/01 04:51:19;;;;;;;6.80;2.10;;;;;;;13.93;70.79;101846.69;6186285;23;20006;-84
2022/09/01 04:53:49;;;;;;;10.20;2.15;;;;;;;13.89;70.73;101845.41;6185308;23;20031;-84
2022/09/01 04:56:18;;;;;;;9.05;1.98;;;;;;;13.82;70.18;101848.19;6184897;23;20000;-84
2022/09/01 04:58:48;;;;;;;6.00;2.13;;;;;;;13.79;70.47;101851.31;6186057;23;20334;-84
2022/09/01 05:01:25;;;;;;;9.20;2.20;;;;;;;13.75;70.00;101860.97;6185478;23;20001;-84
2022/09/01 05:04:00;;;;;;;6.93;2.05;;;;;;;13.68;71.06;101861.84;6185553;23;20028;-84
2022/09/01 05:06:26;;;;;;;5.80;2.28;;;;;;;13.70;70.78;101856.16;6185487;23;20075;-83
2022/09/01 05:08:52;;;;;;;12.38;2.20;;;;;;;13.64;71.10;101851.53;6159955;23;20386;-82
2022/09/01 05:11:22;;;;;;;6.70;2.00;;;;;;;13.66;71.09;101857.63;6185109;23;20091;-82
2022/09/01 05:13:49;;;;;;;6.45;1.80;;;;;;;13.69;70.96;101862.66;6186565;23;20005;-81
2022/09/01 05:16:20;;;;;;;4.38;2.00;;;;;;;13.72;70.95;101861.41;6187048;23;20005;-81
2022/09/01 05:18:47;;;;;;;6.27;2.17;;;;;;;13.71;70.31;101851.53;6186701;23;20005;-81
2022/09/01 05:21:21;;;;;;;4.15;2.10;;;;;;;13.74;70.07;101851.13;6186548;23;20084;-80
2022/09/01 05:23:48;;;;;;;4.15;1.90;;;;;;;13.78;70.75;101864.13;6186164;23;20510;-79
2022/09/01 05:26:25;;;;;;;4.90;2.20;;;;;;;13.83;69.88;101860.75;6184603;23;20040;-79
2022/09/01 05:28:53;;;;;;;8.20;1.70;;;;;;;13.84;70.33;101862.44;6186828;23;20023;-79
2022/09/01 05:31:23;;;;;;;3.63;2.27;;;;;;;13.88;70.22;101862.81;6186174;23;20079;-79
2022/09/01 05:33:49;;;;;;;5.03;2.13;;;;;;;13.86;69.51;101858.44;6186839;23;20005;-79
2022/09/01 05:36:18;;;;;;;4.60;2.30;;;;;;;13.87;70.42;101853.81;6186561;23;20009;-81
2022/09/01 05:38:46;;;;;;;6.40;1.98;;;;;;;13.93;70.05;101855.69;6184460;23;20017;-81
2022/09/01 05:41:16;;;;;;;6.32;2.40;;;;;;;14.00;69.66;101858.41;6160257;23;20009;-81
2022/09/01 05:43:48;;;;;;;3.97;2.00;;;;;;;14.08;69.40;101865.53;6186525;23;20009;-78
2022/09/01 05:46:15;;;;;;;3.17;1.92;;;;;;;14.16;69.05;101863.41;6185904;23;20088;-81
2022/09/01 05:48:48;;;;;;;9.93;2.28;;;;;;;14.21;68.32;101868.22;6186574;23;20001;-80
2022/09/01 05:51:18;;;;;;;4.10;1.90;;;;;;;14.28;67.59;101865.47;6161324;23;20008;-78
2022/09/01 05:53:51;;;;;;;6.50;2.30;;;;;;;14.31;68.23;101865.03;6184767;23;20008;-80
2022/09/01 05:56:18;;;;;;;8.93;2.50;;;;;;;14.37;68.45;101862.28;6185702;23;20033;-78
2022/09/01 05:58:47;;;;;;;8.70;2.08;;;;;;;14.41;67.95;101870.88;6186322;23;20005;-78
2022/09/01 06:01:25;;;;;;;7.55;2.20;;;;;;;14.49;67.76;101861.59;6186360;23;20039;-79
2022/09/01 06:03:55;;;;;;;6.35;2.17;;;;;;;14.53;67.54;101868.31;6184771;23;20012;-79
2022/09/01 06:06:26;;;;;;;11.27;2.28;;;;;;;14.51;67.22;101860.34;6186815;23;20031;-79
2022/09/01 06:08:57;;;;;;;9.23;2.50;;;;;;;14.50;67.21;101860.56;6184339;23;20044;-80
2022/09/01 06:11:24;;;;;;;10.70;2.30;;;;;;;14.53;67.01;101873.78;6184850;23;20084;-80
2022/09/01 06:13:51;;;;;;;5.55;2.53;;;;;;;14.54;67.61;101875.44;6184521;23;20005;-80
2022/09/01 06:16:18;;;;;;;8.80;2.25;;;;;;;14.51;67.51;101871.25;6160622;23;20059;-78
2022/09/01 06:18:44;;;;;;;8.82;2.50;;;;;;;14.53;67.26;101874.59;6159976;23;20083;-79
2022/09/01 06:21:13;;;;;;;7.83;2.30;;;;;;;14.53;67.63;101873.78;6183908;23;20031;-79
2022/09/01 06:23:43;;;;;;;9.68;2.47;;;;;;;14.55;67.37;101871.66;6186040;23;20045;-79
2022/09/01 06:26:25;;;;;;;5.72;1.92;;;;;;;14.57;66.69;101873.13;6185818;23;20001;-79
2022/09/01 06:28:53;;;;;;;6.55;2.03;;;;;;;14.62;67.17;101869.75;6185003;23;20001;-79
2022/09/01 06:31:22;;;;;;;8.73;2.10;;;;;;;14.62;66.82;101871.69;6186189;23;20017;-80
2022/09/01 06:33:50;;;;;;;11.57;2.30;;;;;;;14.64;66.43;101867.66;6184473;23;20438;-79
2022/09/01 06:36:17;;;;;;;5.88;1.95;;;;;;;14.66;66.47;101873.75;6185920;23;20087;-79
2022/09/01 06:38:43;;;;;;;5.90;2.00;;;;;;;14.68;66.26;101879.00;6184173;23;20467;-80
2022/09/01 06:41:11;;;;;;;7.67;2.13;;;;;;;14.72;66.16;101878.34;6183964;23;20009;-80
2022/09/01 06:43:38;;;;;;;4.95;2.17;;;;;;;14.76;66.43;101878.72;6160029;23;20088;-79
2022/09/01 06:46:04;;;;;;;5.35;1.95;;;;;;;14.84;66.06;101873.00;6185330;23;20005;-79
2022/09/01 06:48:29;;;;;;;4.87;2.30;;;;;;;14.87;66.43;101875.31;6186270;23;20045;-79
2022/09/01 06:51:01;;;;;;;3.70;2.33;;;;;;;14.94;66.28;101880.75;6184479;23;20035;-79
2022/09/01 06:53:27;;;;;;;6.15;2.00;;;;;;;15.00;66.21;101877.13;6184494;23;20009;-80
2022/09/01 06:55:55;;;;;;;6.55;2.40;;;;;;;15.03;66.13;101871.22;6186167;23;20005;-80
2022/09/01 06:58:20;;;;;;;3.75;2.40;;;;;;;15.09;65.72;101878.53;6184695;23;20009;-80
2022/09/01 07:00:47;;;;;;;6.60;2.30;;;;;;;15.19;65.82;101874.47;6185940;23;20327;-80
2022/09/01 07:03:14;;;;;;;6.82;2.40;;;;;;;15.31;65.13;101882.78;6184246;23;20021;-80
2022/09/01 07:05:41;;;;;;;4.80;2.42;;;;;;;15.38;65.46;101883.59;6184367;23;20450;-80
2022/09/01 07:08:09;;;;;;;5.97;2.50;;;;;;;15.46;65.25;101885.19;6185910;23;20012;-80
2022/09/01 07:10:44;;;;;;;7.72;2.30;;;;;;;15.52;65.11;101892.53;6186016;23;20009;-80
2022/09/01 07:13:24;;;;;;;12.20;2.97;;;;;;;15.56;64.57;101886.38;6185753;23;20052;-80
2022/09/01 07:15:51;;;;;;;8.07;2.42;;;;;;;15.63;64.12;101893.69;6184884;23;20009;-80
2022/09/01 07:18:20;;;;;;;9.30;2.25;;;;;;;15.66;64.57;101894.06;6184579;23;20432;-80
2022/09/01 07:20:47;;;;;;;4.60;2.50;;;;;;;15.74;64.29;101891.06;6184005;23;20005;-80
2022/09/01 07:23:15;;;;;;;6.32;2.47;;;;;;;15.82;64.07;101895.44;6185822;23;20012;-80
2022/09/01 07:25:44;;;;;;;4.18;2.25;;;;;;;15.90;64.26;101895.16;6187717;23;20313;-80
2022/09/01 07:28:12;;;;;;;5.45;2.35;;;;;;;15.94;64.19;101899.13;6187014;23;20011;-80
2022/09/01 07:30:47;;;;;;;6.15;2.55;;;;;;;16.01;64.22;101896.31;6187624;23;20001;-80
2022/09/01 07:33:19;;;;;;;7.67;2.37;;;;;;;16.11;63.55;101891.16;6184943;23;20036;-81
2022/09/01 07:35:48;;;;;;;7.90;2.40;;;;;;;16.20;63.82;101891.69;6185996;23;20039;-80
2022/09/01 07:38:18;;;;;;;10.70;2.47;;;;;;;16.27;63.38;101895.19;6185557;23;20013;-80
2022/09/01 07:40:44;;;;;;;6.07;2.17;;;;;;;16.38;62.86;101895.50;6162313;23;20005;-80
2022/09/01 07:43:23;;;;;;;3.70;2.35;;;;;;;16.49;62.70;101892.00;6187640;23;20059;-81
2022/09/01 07:45:54;;;;;;;4.40;2.23;;;;;;;16.54;62.31;101889.41;6161541;23;20021;-80
2022/09/01 07:48:21;;;;;;;4.57;2.22;;;;;;;16.60;62.58;101893.13;6187711;23;20352;-80
2022/09/01 07:50:51;;;;;;;4.45;2.03;;;;;;;16.64;62.18;101895.16;6187242;23;20395;-80
2022/09/01 07:53:25;;;;;;;7.85;2.30;;;;;;;16.71;62.60;101897.84;6187635;23;20008;-80
2022/09/01 07:55:53;;;;;;;8.13;2.38;;;;;;;16.78;62.08;101893.06;6161604;23;20319;-81
2022/09/01 07:58:25;;;;;;;6.63;2.23;;;;;;;16.89;61.98;101896.97;6186947;23;20005;-80
2022/09/01 08:00:52;;;;;;;3.70;2.30;;;;;;;16.98;61.82;101892.00;6161390;23;20316;-80
2022/09/01 08:03:20;;;;;;;6.25;2.47;;;;;;;17.08;61.35;101891.44;6160607;23;20016;-80
2022/09/01 08:05:47;;;;;;;7.30;2.28;;;;;;;17.15;60.98;101889.44;6187703;23;20000;-80
2022/09/01 08:08:13;;;;;;;9.15;2.60;;;;;;;17.22;61.39;101889.34;6161111;23;20005;-80
2022/09/01 08:10:40;;;;;;;6.50;2.20;;;;;;;17.29;60.91;101890.91;6188102;23;20063;-81
2022/09/01 08:13:07;;;;;;;6.10;2.83;;;;;;;17.36;60.82;101891.63;6187691;23;20001;-80
2022/09/01 08:15:32;;;;;;;7.53;2.40;;;;;;;17.45;60.74;101897.63;6186636;23;20032;-80
2022/09/01 08:17:58;;;;;;;4.63;2.30;;;;;;;17.55;60.61;101894.28;6187105;23;20092;-80
2022/09/01 08:20:23;;;;;;;7.32;2.40;;;;;;;17.64;60.63;101900.25;6187410;23;20013;-80
2022/09/01 08:22:49;;;;;;;4.37;2.40;;;;;;;17.73;60.23;101895.25;6160804;23;20013;-80
2022/09/01 08:25:16;;;;;;;10.67;2.50;;;;;;;17.82;60.20;101897.41;6112042;23;20084;-81
2022/09/01 08:27:41;;;;;;;8.15;2.40;;;;;;;17.91;60.09;101891.56;6160623;23;20005;-81
2022/09/01 08:30:11;;;;;;;5.30;2.70;;;;;;;18.00;59.77;101893.72;6160465;23;20309;-80
2022/09/01 08:32:37;;;;;;;6.65;2.50;;;;;;;18.17;59.37;101890.25;6159919;23;20005;-83
2022/09/01 08:35:03;;;;;;;5.30;2.55;;;;;;;18.22;59.25;101896.69;6160379;23;20056;-80
2022/09/01 08:37:30;;;;;;;5.93;2.40;;;;;;;18.33;58.85;101889.50;6160441;23;20440;-81
2022/09/01 08:39:55;;;;;;;8.70;3.20;;;;;;;18.36;58.91;101894.50;6187343;23;20020;-81
2022/09/01 08:42:50;;;;;;;8.43;2.80;;;;;;;18.43;58.89;101891.63;6160292;23;20013;-81
2022/09/01 08:45:24;;;;;;;5.28;2.40;;;;;;;18.51;58.52;101898.66;6132961;23;20127;-80
2022/09/01 08:47:56;;;;;;;7.13;2.70;;;;;;;18.59;58.55;101895.53;6161344;23;20432;-80
2022/09/01 08:50:22;;;;;;;5.57;2.30;;;;;;;18.75;58.36;101903.00;6186778;23;20001;-80
2022/09/01 08:53:03;;;;;;;11.00;3.25;;;;;;;18.88;58.04;101899.16;6160291;23;20067;-81
2022/09/01 08:55:41;;;;;;;6.68;2.35;;;;;;;18.97;57.67;101905.09;6186364;23;20510;-81
2022/09/01 08:58:09;;;;;;;4.00;2.42;;;;;;;19.06;58.24;101898.13;6159999;23;20043;-81
2022/09/01 09:00:43;;;;;;;7.10;2.55;;;;;;;19.16;57.65;101885.63;6186344;23;20001;-80
2022/09/01 09:03:30;;;;;;;5.73;2.40;;;;;;;19.24;57.65;101890.72;6160628;23;20005;-81
2022/09/01 09:06:19;;;;;;;9.10;2.30;;;;;;;19.37;56.97;101884.03;6187005;23;20008;-80
2022/09/01 09:08:58;;;;;;;6.00;2.42;;;;;;;19.44;56.48;101893.84;6186990;23;20434;-81
2022/09/01 09:11:52;;;;;;;4.82;2.45;;;;;;;19.56;56.61;101884.63;6186560;23;20323;-80
2022/09/01 09:14:17;;;;;;;8.35;2.50;;;;;;;19.72;55.74;101881.03;6186263;23;20396;-81
2022/09/01 09:16:49;;;;;;;7.43;2.23;;;;;;;19.83;55.09;101881.22;6186828;23;20032;-80
2022/09/01 09:19:26;;;;;;;8.45;2.35;;;;;;;19.94;54.56;101878.38;6186936;23;20008;-80
2022/09/01 09:21:54;;;;;;;6.77;2.60;;;;;;;20.03;54.30;101877.94;6186224;23;20397;-81
2022/09/01 09:24:46;;;;;;;4.47;2.33;;;;;;;20.15;54.19;101875.88;6135231;23;20009;-82
2022/09/01 09:27:45;;;;;;;13.40;2.50;;;;;;;20.26;53.96;101874.94;6186923;23;20060;-82
2022/09/01 09:30:15;;;;;;;3.30;2.10;;;;;;;20.37;53.56;101875.91;6121670;23;20009;-81
2022/09/01 09:33:03;;;;;;;4.63;2.30;;;;;;;20.52;53.61;101864.22;6186397;23;20016;-81
2022/09/01 09:35:35;;;;;;;9.33;2.30;;;;;;;20.63;52.98;101859.69;6160734;23;20048;-80
2022/09/01 09:38:27;;;;;;;6.65;2.40;;;;;;;20.79;52.17;101864.28;6186400;23;20020;-80
2022/09/01 09:41:02;;;;;;;3.60;1.85;;;;;;;20.92;51.23;101854.78;6160866;23;20040;-81
2022/09/01 09:43:30;;;;;;;4.82;1.67;;;;;;;21.07;50.74;101859.59;6186083;23;20059;-81
2022/09/01 09:46:22;;;;;;;13.40;2.65;;;;;;;21.23;50.92;101862.50;6159702;23;20095;-81
2022/09/01 09:49:04;;;;;;;7.50;2.67;;;;;;;21.33;48.08;101846.88;6160251;23;20427;-81
2022/09/01 09:51:30;;;;;;;5.65;1.67;;;;;;;21.42;48.71;101847.22;6184766;23;20005;-81
2022/09/01 09:54:11;;;;;;;5.07;1.93;;;;;;;21.55;49.32;101843.19;6185835;23;20009;-81
2022/09/01 09:56:37;;;;;;;4.18;1.80;;;;;;;21.69;46.70;101846.31;6159867;23;20026;-81
2022/09/01 09:59:17;;;;;;;6.97;1.60;;;;;;;21.76;46.36;101835.03;6160828;23;20013;-81
2022/09/01 10:01:42;;;;;;;5.57;1.60;;;;;;;21.91;45.15;101840.66;6186374;23;20059;-81
2022/09/01 10:04:07;;;;;;;3.30;1.90;;;;;;;22.01;45.69;101837.94;6160316;23;20013;-81
2022/09/01 10:06:40;;;;;;;5.63;1.67;;;;;;;22.14;45.27;101842.13;6112033;23;20434;-81
2022/09/01 10:09:13;;;;;;;2.67;1.40;;;;;;;22.27;44.56;101840.81;6186037;23;20083;-81
2022/09/01 10:11:41;;;;;;;5.00;1.70;;;;;;;22.45;43.45;101831.22;6159958;23;20088;-81
2022/09/01 10:14:20;;;;;;;4.20;1.80;;;;;;;22.59;44.67;101832.38;6186184;23;20007;-81
2022/09/01 10:17:14;;;;;;;7.07;1.50;;;;;;;22.74;43.55;101830.75;6160895;23;20013;-81
2022/09/01 10:19:50;;;;;;;4.13;1.40;;;;;;;22.91;41.58;101825.81;6172445;23;20016;-81
2022/09/01 10:22:15;;;;;;;8.88;1.20;;;;;;;23.05;40.64;101823.31;6160406;23;20001;-81
2022/09/01 10:24:41;;;;;;;4.07;1.30;;;;;;;23.18;38.69;101827.50;6159906;23;20016;-81
2022/09/01 10:27:15;;;;;;;4.32;1.10;;;;;;;23.29;37.73;101815.28;6185759;23;20439;-82
2022/09/01 10:29:46;;;;;;;2.03;1.13;;;;;;;23.43;37.74;101823.88;6159805;23;20005;-81
2022/09/01 10:32:18;;;;;;;4.68;1.30;;;;;;;23.48;37.75;101820.28;6186064;23;20013;-81
2022/09/01 10:34:46;;;;;;;4.60;1.30;;;;;;;23.64;36.56;101812.78;6186132;23;20075;-81
2022/09/01 10:37:12;;;;;;;4.63;1.30;;;;;;;23.79;37.06;101822.97;6159747;23;20013;-81
2022/09/01 10:40:19;;;;;;;3.80;1.35;;;;;;;24.02;36.42;101827.09;6159451;23;20022;-81
2022/09/01 10:42:52;;;;;;;2.77;1.70;;;;;;;24.18;36.33;101833.38;6126433;23;20009;-81
2022/09/01 10:45:37;;;;;;;1.98;1.40;;;;;;;24.34;36.47;101823.91;6186073;23;20004;-81
2022/09/01 10:48:22;;;;;;;3.92;1.27;;;;;;;24.52;36.41;101818.78;6159431;23;20356;-80
2022/09/01 10:50:52;;;;;;;4.60;1.25;;;;;;;24.64;35.54;101816.56;6158942;23;20059;-80
2022/09/01 10:53:37;;;;;;;1.63;1.50;;;;;;;24.89;35.90;101823.00;6159504;23;20016;-81
2022/09/01 10:56:15;;;;;;;2.73;1.30;;;;;;;25.02;34.92;101822.38;6186699;23;20005;-81
2022/09/01 10:59:02;;;;;;;7.80;1.80;;;;;;;25.34;34.58;101809.91;6161425;23;20008;-80
2022/09/01 11:01:40;;;;;;;3.63;1.40;;;;;;;25.56;33.88;101812.19;6161332;23;20079;-81
2022/09/01 11:04:14;;;;;;;6.03;2.00;;;;;;;25.81;33.10;101817.78;6161325;23;20495;-80
2022/09/01 11:06:52;;;;;;;2.03;1.60;;;;;;;26.12;33.27;101820.19;6161408;23;20012;-80
2022/09/01 11:09:35;;;;;;;2.33;1.70;;;;;;;26.32;31.62;101813.53;6162160;23;20087;-81
2022/09/01 11:12:20;;;;;;;3.38;1.50;;;;;;;26.72;31.38;101809.38;6187439;23;20016;-82
2022/09/01 11:14:52;;;;;;;2.85;1.52;;;;;;;27.71;30.72;101808.50;6161089;23;20080;-81
2022/09/01 11:17:19;;;;;;;4.88;1.70;;;;;;;30.29;26.98;101808.59;6161696;23;20004;-81
2022/09/01 11:19:53;;;;;;;3.72;1.30;;;;;;;33.52;24.56;101806.19;6188020;23;20009;-84
2022/09/01 11:22:31;;;;;;;3.43;1.40;;;;;;;35.91;20.46;101800.63;6188373;23;20009;-85
2022/09/01 11:25:34;;;;;;;6.05;1.48;;;;;;;38.49;20.29;101788.75;6161663;23;20091;-84
2022/09/01 11:28:07;;;;;;;3.58;1.60;;;;;;;40.07;15.92;101795.97;6187202;23;20028;-84
2022/09/01 11:30:49;;;;;;;3.83;1.75;;;;;;;41.34;16.78;101783.78;6161054;23;20068;-84
2022/09/01 11:33:14;;;;;;;7.30;2.10;;;;;;;42.12;13.75;101777.56;6161407;23;20013;-84
2022/09/01 11:35:45;;;;;;;4.60;1.97;;;;;;;43.28;13.89;101776.50;6160815;23;20336;-85
2022/09/01 11:38:15;;;;;;;4.57;2.38;;;;;;;44.44;12.62;101766.72;6160798;23;20019;-85
2022/09/01 11:40:42;;;;;;;8.77;2.55;;;;;;;45.71;11.23;101757.72;6187508;23;20016;-84
2022/09/01 11:43:14;;;;;;;7.00;3.07;;;;;;;46.22;11.10;101751.81;6135655;23;20013;-84
2022/09/01 11:46:01;;;;;;;12.15;2.92;;;;;;;46.28;12.25;101754.97;6160966;23;20005;-84